sensor_id;sensor_type;location;lat;lon;timestamp;P1;durP1;ratioP1;P2;durP2;ratioP2
65009;SDS011;51556;50.002;22.014;2023-11-19T00:02:21;16.70;;;9.20;;
65009;SDS011;51556;50.002;22.014;2023-11-19T00:04:47;15.70;;;8.80;;
65009;SDS011;51556;50.002;22.014;2023-11-19T00:07:12;16.70;;;9.20;;
65009;SDS011;51556;50.002;22.014;2023-11-19T00:09:39;13.90;;;8.90;;
65009;SDS011;51556;50.002;22.014;2023-11-19T00:12:05;14.90;;;10.10;;
65009;SDS011;51556;50.002;22.014;2023-11-19T00:14:32;15.10;;;9.10;;
65009;SDS011;51556;50.002;22.014;2023-11-19T00:17:00;12.50;;;8.20;;
65009;SDS011;51556;50.002;22.014;2023-11-19T00:19:25;15.80;;;9.70;;
65009;SDS011;51556;50.002;22.014;2023-11-19T00:21:51;17.10;;;9.80;;
65009;SDS011;51556;50.002;22.014;2023-11-19T00:24:17;15.10;;;9.40;;
65009;SDS011;51556;50.002;22.014;2023-11-19T00:26:43;16.00;;;10.10;;
65009;SDS011;51556;50.002;22.014;2023-11-19T00:29:08;13.40;;;9.10;;
65009;SDS011;51556;50.002;22.014;2023-11-19T00:31:34;16.20;;;9.00;;
65009;SDS011;51556;50.002;22.014;2023-11-19T00:34:00;13.70;;;8.80;;
65009;SDS011;51556;50.002;22.014;2023-11-19T00:36:26;13.30;;;9.10;;
65009;SDS011;51556;50.002;22.014;2023-11-19T00:38:52;12.60;;;8.10;;
65009;SDS011;51556;50.002;22.014;2023-11-19T00:41:18;14.40;;;8.50;;
65009;SDS011;51556;50.002;22.014;2023-11-19T00:43:44;14.30;;;9.20;;
65009;SDS011;51556;50.002;22.014;2023-11-19T00:46:09;16.00;;;9.90;;
65009;SDS011;51556;50.002;22.014;2023-11-19T00:48:36;16.20;;;9.80;;
65009;SDS011;51556;50.002;22.014;2023-11-19T00:51:01;17.30;;;10.40;;
65009;SDS011;51556;50.002;22.014;2023-11-19T00:53:27;18.00;;;10.20;;
65009;SDS011;51556;50.002;22.014;2023-11-19T00:55:53;16.50;;;9.40;;
65009;SDS011;51556;50.002;22.014;2023-11-19T00:58:18;15.20;;;9.60;;
65009;SDS011;51556;50.002;22.014;2023-11-19T01:00:43;18.20;;;10.60;;
65009;SDS011;51556;50.002;22.014;2023-11-19T01:03:10;15.30;;;9.70;;
65009;SDS011;51556;50.002;22.014;2023-11-19T01:05:36;16.80;;;9.80;;
65009;SDS011;51556;50.002;22.014;2023-11-19T01:08:02;15.80;;;9.80;;
65009;SDS011;51556;50.002;22.014;2023-11-19T01:10:29;13.40;;;9.40;;
65009;SDS011;51556;50.002;22.014;2023-11-19T01:12:55;16.80;;;11.00;;
65009;SDS011;51556;50.002;22.014;2023-11-19T01:15:20;17.00;;;10.80;;
65009;SDS011;51556;50.002;22.014;2023-11-19T01:17:46;18.70;;;10.10;;
65009;SDS011;51556;50.002;22.014;2023-11-19T01:20:11;16.50;;;10.10;;
65009;SDS011;51556;50.002;22.014;2023-11-19T01:22:38;18.90;;;10.30;;
65009;SDS011;51556;50.002;22.014;2023-11-19T01:25:04;16.30;;;9.80;;
65009;SDS011;51556;50.002;22.014;2023-11-19T01:27:30;15.00;;;10.10;;
65009;SDS011;51556;50.002;22.014;2023-11-19T01:29:56;16.40;;;10.30;;
65009;SDS011;51556;50.002;22.014;2023-11-19T01:32:21;15.30;;;9.60;;
65009;SDS011;51556;50.002;22.014;2023-11-19T01:34:49;15.20;;;9.30;;
65009;SDS011;51556;50.002;22.014;2023-11-19T01:37:14;18.40;;;9.70;;
65009;SDS011;51556;50.002;22.014;2023-11-19T01:39:40;15.60;;;9.50;;
65009;SDS011;51556;50.002;22.014;2023-11-19T01:42:05;17.30;;;9.60;;
65009;SDS011;51556;50.002;22.014;2023-11-19T01:44:30;17.40;;;9.40;;
65009;SDS011;51556;50.002;22.014;2023-11-19T01:46:57;17.50;;;9.80;;
65009;SDS011;51556;50.002;22.014;2023-11-19T01:49:22;14.60;;;9.10;;
65009;SDS011;51556;50.002;22.014;2023-11-19T01:51:48;17.80;;;9.80;;
65009;SDS011;51556;50.002;22.014;2023-11-19T01:54:14;17.30;;;9.90;;
65009;SDS011;51556;50.002;22.014;2023-11-19T01:56:40;14.80;;;8.40;;
65009;SDS011;51556;50.002;22.014;2023-11-19T01:59:07;16.50;;;9.80;;
65009;SDS011;51556;50.002;22.014;2023-11-19T02:01:34;17.90;;;9.80;;
65009;SDS011;51556;50.002;22.014;2023-11-19T02:04:04;14.80;;;9.60;;
65009;SDS011;51556;50.002;22.014;2023-11-19T02:06:31;18.00;;;10.70;;
65009;SDS011;51556;50.002;22.014;2023-11-19T02:08:59;17.00;;;9.60;;
65009;SDS011;51556;50.002;22.014;2023-11-19T02:11:26;15.30;;;9.40;;
65009;SDS011;51556;50.002;22.014;2023-11-19T02:13:55;15.60;;;8.70;;
65009;SDS011;51556;50.002;22.014;2023-11-19T02:16:22;16.80;;;9.90;;
65009;SDS011;51556;50.002;22.014;2023-11-19T02:18:47;17.90;;;10.60;;
65009;SDS011;51556;50.002;22.014;2023-11-19T02:21:13;17.00;;;9.60;;
65009;SDS011;51556;50.002;22.014;2023-11-19T02:23:40;18.00;;;9.10;;
65009;SDS011;51556;50.002;22.014;2023-11-19T02:26:13;15.90;;;9.10;;
65009;SDS011;51556;50.002;22.014;2023-11-19T02:28:43;17.50;;;10.10;;
65009;SDS011;51556;50.002;22.014;2023-11-19T02:31:09;17.40;;;9.70;;
65009;SDS011;51556;50.002;22.014;2023-11-19T02:33:36;17.20;;;9.40;;
65009;SDS011;51556;50.002;22.014;2023-11-19T02:36:03;16.20;;;9.60;;
65009;SDS011;51556;50.002;22.014;2023-11-19T02:38:32;17.00;;;9.30;;
65009;SDS011;51556;50.002;22.014;2023-11-19T02:40:59;16.10;;;9.00;;
65009;SDS011;51556;50.002;22.014;2023-11-19T02:43:30;15.60;;;9.20;;
65009;SDS011;51556;50.002;22.014;2023-11-19T02:45:57;15.60;;;9.30;;
65009;SDS011;51556;50.002;22.014;2023-11-19T02:48:22;15.30;;;9.10;;
65009;SDS011;51556;50.002;22.014;2023-11-19T02:50:48;15.50;;;8.80;;
65009;SDS011;51556;50.002;22.014;2023-11-19T02:53:13;16.70;;;9.00;;
65009;SDS011;51556;50.002;22.014;2023-11-19T02:55:38;14.10;;;8.70;;
65009;SDS011;51556;50.002;22.014;2023-11-19T02:58:06;15.00;;;8.90;;
65009;SDS011;51556;50.002;22.014;2023-11-19T03:00:45;14.60;;;9.20;;
65009;SDS011;51556;50.002;22.014;2023-11-19T03:03:19;17.30;;;9.00;;
65009;SDS011;51556;50.002;22.014;2023-11-19T03:05:48;15.30;;;9.00;;
65009;SDS011;51556;50.002;22.014;2023-11-19T03:08:14;17.60;;;9.90;;
65009;SDS011;51556;50.002;22.014;2023-11-19T03:10:41;15.10;;;9.30;;
65009;SDS011;51556;50.002;22.014;2023-11-19T03:13:08;16.20;;;9.40;;
65009;SDS011;51556;50.002;22.014;2023-11-19T03:15:39;15.10;;;9.20;;
65009;SDS011;51556;50.002;22.014;2023-11-19T03:18:04;15.00;;;8.60;;
65009;SDS011;51556;50.002;22.014;2023-11-19T03:20:30;18.10;;;9.20;;
65009;SDS011;51556;50.002;22.014;2023-11-19T03:22:55;15.60;;;9.10;;
65009;SDS011;51556;50.002;22.014;2023-11-19T03:25:24;16.30;;;10.10;;
65009;SDS011;51556;50.002;22.014;2023-11-19T03:27:52;17.90;;;10.00;;
65009;SDS011;51556;50.002;22.014;2023-11-19T03:30:18;15.90;;;9.50;;
65009;SDS011;51556;50.002;22.014;2023-11-19T03:32:46;20.10;;;10.70;;
65009;SDS011;51556;50.002;22.014;2023-11-19T03:35:11;17.00;;;9.70;;
65009;SDS011;51556;50.002;22.014;2023-11-19T03:37:37;17.00;;;9.70;;
65009;SDS011;51556;50.002;22.014;2023-11-19T03:40:05;18.20;;;9.80;;
65009;SDS011;51556;50.002;22.014;2023-11-19T03:42:31;15.60;;;10.10;;
65009;SDS011;51556;50.002;22.014;2023-11-19T03:44:56;17.60;;;10.10;;
65009;SDS011;51556;50.002;22.014;2023-11-19T03:47:22;18.50;;;11.50;;
65009;SDS011;51556;50.002;22.014;2023-11-19T03:49:48;18.60;;;10.80;;
65009;SDS011;51556;50.002;22.014;2023-11-19T03:52:17;17.50;;;10.50;;
65009;SDS011;51556;50.002;22.014;2023-11-19T03:54:43;21.60;;;11.40;;
65009;SDS011;51556;50.002;22.014;2023-11-19T03:57:10;19.00;;;10.60;;
65009;SDS011;51556;50.002;22.014;2023-11-19T03:59:37;17.40;;;10.40;;
65009;SDS011;51556;50.002;22.014;2023-11-19T04:02:02;18.40;;;10.60;;
65009;SDS011;51556;50.002;22.014;2023-11-19T04:04:28;18.10;;;10.40;;
65009;SDS011;51556;50.002;22.014;2023-11-19T04:06:54;19.10;;;10.40;;
65009;SDS011;51556;50.002;22.014;2023-11-19T04:09:21;18.90;;;10.80;;
65009;SDS011;51556;50.002;22.014;2023-11-19T04:11:47;16.20;;;10.10;;
65009;SDS011;51556;50.002;22.014;2023-11-19T04:14:13;17.40;;;10.40;;
65009;SDS011;51556;50.002;22.014;2023-11-19T04:16:40;19.20;;;10.60;;
65009;SDS011;51556;50.002;22.014;2023-11-19T04:19:05;20.30;;;11.10;;
65009;SDS011;51556;50.002;22.014;2023-11-19T04:21:31;16.70;;;10.80;;
65009;SDS011;51556;50.002;22.014;2023-11-19T04:23:57;17.10;;;10.30;;
65009;SDS011;51556;50.002;22.014;2023-11-19T04:26:22;16.80;;;10.10;;
65009;SDS011;51556;50.002;22.014;2023-11-19T04:28:48;16.60;;;10.30;;
65009;SDS011;51556;50.002;22.014;2023-11-19T04:31:14;22.10;;;11.50;;
65009;SDS011;51556;50.002;22.014;2023-11-19T04:33:41;17.40;;;10.30;;
65009;SDS011;51556;50.002;22.014;2023-11-19T04:36:08;21.30;;;10.80;;
65009;SDS011;51556;50.002;22.014;2023-11-19T04:38:34;20.50;;;10.20;;
65009;SDS011;51556;50.002;22.014;2023-11-19T04:41:00;17.60;;;9.80;;
65009;SDS011;51556;50.002;22.014;2023-11-19T04:43:25;18.40;;;10.90;;
65009;SDS011;51556;50.002;22.014;2023-11-19T04:45:51;17.40;;;10.30;;
65009;SDS011;51556;50.002;22.014;2023-11-19T04:48:16;17.00;;;10.10;;
65009;SDS011;51556;50.002;22.014;2023-11-19T04:50:42;18.80;;;10.50;;
65009;SDS011;51556;50.002;22.014;2023-11-19T04:53:07;19.20;;;11.80;;
65009;SDS011;51556;50.002;22.014;2023-11-19T04:55:32;18.70;;;11.00;;
65009;SDS011;51556;50.002;22.014;2023-11-19T04:57:58;20.40;;;11.40;;
65009;SDS011;51556;50.002;22.014;2023-11-19T05:00:23;20.40;;;11.30;;
65009;SDS011;51556;50.002;22.014;2023-11-19T05:02:49;17.80;;;10.60;;
65009;SDS011;51556;50.002;22.014;2023-11-19T05:05:15;20.80;;;11.40;;
65009;SDS011;51556;50.002;22.014;2023-11-19T05:07:41;17.90;;;10.50;;
65009;SDS011;51556;50.002;22.014;2023-11-19T05:10:06;18.10;;;10.10;;
65009;SDS011;51556;50.002;22.014;2023-11-19T05:12:32;20.80;;;10.70;;
65009;SDS011;51556;50.002;22.014;2023-11-19T05:14:57;20.00;;;11.30;;
65009;SDS011;51556;50.002;22.014;2023-11-19T05:17:23;18.50;;;10.40;;
65009;SDS011;51556;50.002;22.014;2023-11-19T05:19:48;17.80;;;10.40;;
65009;SDS011;51556;50.002;22.014;2023-11-19T05:22:14;18.50;;;9.90;;
65009;SDS011;51556;50.002;22.014;2023-11-19T05:24:39;17.10;;;10.10;;
65009;SDS011;51556;50.002;22.014;2023-11-19T05:27:06;20.90;;;11.20;;
65009;SDS011;51556;50.002;22.014;2023-11-19T05:29:33;18.00;;;10.70;;
65009;SDS011;51556;50.002;22.014;2023-11-19T05:31:58;19.20;;;10.50;;
65009;SDS011;51556;50.002;22.014;2023-11-19T05:34:24;19.90;;;11.00;;
65009;SDS011;51556;50.002;22.014;2023-11-19T05:36:50;17.80;;;9.30;;
65009;SDS011;51556;50.002;22.014;2023-11-19T05:39:16;15.50;;;9.10;;
65009;SDS011;51556;50.002;22.014;2023-11-19T05:41:42;12.90;;;8.20;;
65009;SDS011;51556;50.002;22.014;2023-11-19T05:44:07;15.80;;;9.00;;
65009;SDS011;51556;50.002;22.014;2023-11-19T05:46:33;16.60;;;9.40;;
65009;SDS011;51556;50.002;22.014;2023-11-19T05:48:58;13.50;;;8.40;;
65009;SDS011;51556;50.002;22.014;2023-11-19T05:51:24;15.00;;;8.40;;
65009;SDS011;51556;50.002;22.014;2023-11-19T05:53:49;12.60;;;8.30;;
65009;SDS011;51556;50.002;22.014;2023-11-19T05:56:15;16.70;;;8.40;;
65009;SDS011;51556;50.002;22.014;2023-11-19T06:01:13;17.30;;;8.10;;
65009;SDS011;51556;50.002;22.014;2023-11-19T06:03:39;14.10;;;8.40;;
65009;SDS011;51556;50.002;22.014;2023-11-19T06:06:04;12.10;;;7.50;;
65009;SDS011;51556;50.002;22.014;2023-11-19T06:08:31;12.00;;;7.30;;
65009;SDS011;51556;50.002;22.014;2023-11-19T06:10:56;13.00;;;7.70;;
65009;SDS011;51556;50.002;22.014;2023-11-19T06:13:22;13.20;;;7.00;;
65009;SDS011;51556;50.002;22.014;2023-11-19T06:15:47;10.60;;;6.90;;
65009;SDS011;51556;50.002;22.014;2023-11-19T06:18:12;12.80;;;8.20;;
65009;SDS011;51556;50.002;22.014;2023-11-19T06:20:40;13.30;;;7.50;;
65009;SDS011;51556;50.002;22.014;2023-11-19T06:23:06;13.90;;;8.20;;
65009;SDS011;51556;50.002;22.014;2023-11-19T06:25:31;13.40;;;7.30;;
65009;SDS011;51556;50.002;22.014;2023-11-19T06:27:58;11.90;;;7.30;;
65009;SDS011;51556;50.002;22.014;2023-11-19T06:30:24;12.20;;;7.80;;
65009;SDS011;51556;50.002;22.014;2023-11-19T06:32:50;12.40;;;7.90;;
65009;SDS011;51556;50.002;22.014;2023-11-19T06:35:15;13.40;;;8.10;;
65009;SDS011;51556;50.002;22.014;2023-11-19T06:37:40;13.40;;;7.50;;
65009;SDS011;51556;50.002;22.014;2023-11-19T06:40:07;17.00;;;7.20;;
65009;SDS011;51556;50.002;22.014;2023-11-19T06:42:34;12.30;;;7.90;;
65009;SDS011;51556;50.002;22.014;2023-11-19T06:45:00;14.90;;;8.40;;
65009;SDS011;51556;50.002;22.014;2023-11-19T06:47:27;29.20;;;14.50;;
65009;SDS011;51556;50.002;22.014;2023-11-19T06:49:53;24.80;;;13.10;;
65009;SDS011;51556;50.002;22.014;2023-11-19T06:52:18;15.00;;;8.50;;
65009;SDS011;51556;50.002;22.014;2023-11-19T06:54:44;13.20;;;7.80;;
65009;SDS011;51556;50.002;22.014;2023-11-19T06:57:10;13.40;;;8.60;;
65009;SDS011;51556;50.002;22.014;2023-11-19T06:59:36;15.90;;;9.50;;
65009;SDS011;51556;50.002;22.014;2023-11-19T07:02:02;12.10;;;7.50;;
65009;SDS011;51556;50.002;22.014;2023-11-19T07:04:28;12.30;;;7.30;;
65009;SDS011;51556;50.002;22.014;2023-11-19T07:06:53;10.80;;;7.20;;
65009;SDS011;51556;50.002;22.014;2023-11-19T07:09:18;12.20;;;6.80;;
65009;SDS011;51556;50.002;22.014;2023-11-19T07:11:44;10.10;;;6.50;;
65009;SDS011;51556;50.002;22.014;2023-11-19T07:14:11;12.90;;;7.70;;
65009;SDS011;51556;50.002;22.014;2023-11-19T07:16:36;13.50;;;8.80;;
65009;SDS011;51556;50.002;22.014;2023-11-19T07:19:06;13.00;;;8.00;;
65009;SDS011;51556;50.002;22.014;2023-11-19T07:21:32;11.90;;;7.10;;
65009;SDS011;51556;50.002;22.014;2023-11-19T07:24:02;11.70;;;7.10;;
65009;SDS011;51556;50.002;22.014;2023-11-19T07:26:28;12.10;;;7.00;;
65009;SDS011;51556;50.002;22.014;2023-11-19T07:28:53;13.20;;;7.90;;
65009;SDS011;51556;50.002;22.014;2023-11-19T07:31:20;14.50;;;8.20;;
65009;SDS011;51556;50.002;22.014;2023-11-19T07:33:46;11.70;;;7.50;;
65009;SDS011;51556;50.002;22.014;2023-11-19T07:36:12;12.50;;;7.50;;
65009;SDS011;51556;50.002;22.014;2023-11-19T07:38:38;15.40;;;8.70;;
65009;SDS011;51556;50.002;22.014;2023-11-19T07:41:07;15.00;;;9.90;;
65009;SDS011;51556;50.002;22.014;2023-11-19T07:43:37;17.40;;;10.20;;
65009;SDS011;51556;50.002;22.014;2023-11-19T07:46:04;15.70;;;9.70;;
65009;SDS011;51556;50.002;22.014;2023-11-19T07:48:29;12.60;;;8.30;;
65009;SDS011;51556;50.002;22.014;2023-11-19T07:50:55;13.80;;;8.00;;
65009;SDS011;51556;50.002;22.014;2023-11-19T07:53:21;12.50;;;7.60;;
65009;SDS011;51556;50.002;22.014;2023-11-19T07:55:46;15.70;;;8.30;;
65009;SDS011;51556;50.002;22.014;2023-11-19T07:58:11;11.60;;;6.80;;
65009;SDS011;51556;50.002;22.014;2023-11-19T08:00:37;13.20;;;7.90;;
65009;SDS011;51556;50.002;22.014;2023-11-19T08:03:04;15.80;;;10.10;;
65009;SDS011;51556;50.002;22.014;2023-11-19T08:05:30;16.00;;;9.70;;
65009;SDS011;51556;50.002;22.014;2023-11-19T08:07:56;14.90;;;9.50;;
65009;SDS011;51556;50.002;22.014;2023-11-19T08:10:23;12.50;;;7.40;;
65009;SDS011;51556;50.002;22.014;2023-11-19T08:12:48;11.80;;;7.40;;
65009;SDS011;51556;50.002;22.014;2023-11-19T08:15:14;19.70;;;7.70;;
65009;SDS011;51556;50.002;22.014;2023-11-19T08:17:40;13.20;;;7.60;;
65009;SDS011;51556;50.002;22.014;2023-11-19T08:20:08;12.30;;;7.40;;
65009;SDS011;51556;50.002;22.014;2023-11-19T08:22:38;14.10;;;7.80;;
65009;SDS011;51556;50.002;22.014;2023-11-19T08:25:07;12.80;;;7.50;;
65009;SDS011;51556;50.002;22.014;2023-11-19T08:27:33;13.10;;;7.70;;
65009;SDS011;51556;50.002;22.014;2023-11-19T08:29:58;11.90;;;6.40;;
65009;SDS011;51556;50.002;22.014;2023-11-19T08:32:24;12.10;;;7.20;;
65009;SDS011;51556;50.002;22.014;2023-11-19T08:34:51;8.80;;;5.90;;
65009;SDS011;51556;50.002;22.014;2023-11-19T08:37:16;10.30;;;5.50;;
65009;SDS011;51556;50.002;22.014;2023-11-19T08:39:47;10.00;;;6.10;;
65009;SDS011;51556;50.002;22.014;2023-11-19T08:42:13;10.60;;;6.50;;
65009;SDS011;51556;50.002;22.014;2023-11-19T08:44:38;10.20;;;6.40;;
65009;SDS011;51556;50.002;22.014;2023-11-19T08:47:04;8.00;;;5.50;;
65009;SDS011;51556;50.002;22.014;2023-11-19T08:49:29;9.20;;;6.10;;
65009;SDS011;51556;50.002;22.014;2023-11-19T08:51:55;9.60;;;6.10;;
65009;SDS011;51556;50.002;22.014;2023-11-19T08:54:20;12.00;;;7.00;;
65009;SDS011;51556;50.002;22.014;2023-11-19T08:56:47;9.60;;;6.10;;
65009;SDS011;51556;50.002;22.014;2023-11-19T08:59:13;9.60;;;6.30;;
65009;SDS011;51556;50.002;22.014;2023-11-19T09:01:40;10.20;;;6.70;;
65009;SDS011;51556;50.002;22.014;2023-11-19T09:04:06;9.40;;;5.50;;
65009;SDS011;51556;50.002;22.014;2023-11-19T09:06:31;10.30;;;5.80;;
65009;SDS011;51556;50.002;22.014;2023-11-19T09:08:57;14.00;;;8.60;;
65009;SDS011;51556;50.002;22.014;2023-11-19T09:11:26;12.80;;;8.00;;
65009;SDS011;51556;50.002;22.014;2023-11-19T09:13:52;10.30;;;6.20;;
65009;SDS011;51556;50.002;22.014;2023-11-19T09:16:17;9.20;;;6.00;;
65009;SDS011;51556;50.002;22.014;2023-11-19T09:18:43;9.20;;;5.90;;
65009;SDS011;51556;50.002;22.014;2023-11-19T09:21:10;10.40;;;6.70;;
65009;SDS011;51556;50.002;22.014;2023-11-19T09:23:36;14.60;;;6.30;;
65009;SDS011;51556;50.002;22.014;2023-11-19T09:26:08;14.00;;;7.90;;
65009;SDS011;51556;50.002;22.014;2023-11-19T09:31:00;15.20;;;8.60;;
65009;SDS011;51556;50.002;22.014;2023-11-19T09:33:29;14.60;;;8.10;;
65009;SDS011;51556;50.002;22.014;2023-11-19T09:35:55;15.70;;;7.70;;
65009;SDS011;51556;50.002;22.014;2023-11-19T09:38:20;15.80;;;8.80;;
65009;SDS011;51556;50.002;22.014;2023-11-19T09:40:46;16.10;;;8.80;;
65009;SDS011;51556;50.002;22.014;2023-11-19T09:43:13;16.80;;;9.20;;
65009;SDS011;51556;50.002;22.014;2023-11-19T09:45:49;13.20;;;7.30;;
65009;SDS011;51556;50.002;22.014;2023-11-19T09:48:19;12.10;;;6.60;;
65009;SDS011;51556;50.002;22.014;2023-11-19T09:50:47;13.10;;;6.60;;
65009;SDS011;51556;50.002;22.014;2023-11-19T09:53:14;12.10;;;6.70;;
65009;SDS011;51556;50.002;22.014;2023-11-19T09:55:42;11.90;;;6.00;;
65009;SDS011;51556;50.002;22.014;2023-11-19T09:58:08;15.40;;;7.00;;
65009;SDS011;51556;50.002;22.014;2023-11-19T10:00:37;11.40;;;6.50;;
65009;SDS011;51556;50.002;22.014;2023-11-19T10:03:03;14.10;;;7.00;;
65009;SDS011;51556;50.002;22.014;2023-11-19T10:05:30;14.00;;;7.80;;
65009;SDS011;51556;50.002;22.014;2023-11-19T10:07:56;10.30;;;5.70;;
65009;SDS011;51556;50.002;22.014;2023-11-19T10:10:22;8.90;;;6.10;;
65009;SDS011;51556;50.002;22.014;2023-11-19T10:12:50;7.70;;;5.30;;
65009;SDS011;51556;50.002;22.014;2023-11-19T10:15:20;9.30;;;5.40;;
65009;SDS011;51556;50.002;22.014;2023-11-19T10:17:47;9.10;;;5.20;;
65009;SDS011;51556;50.002;22.014;2023-11-19T10:20:13;7.90;;;4.90;;
65009;SDS011;51556;50.002;22.014;2023-11-19T10:22:39;10.50;;;5.70;;
65009;SDS011;51556;50.002;22.014;2023-11-19T10:27:50;9.30;;;5.50;;
65009;SDS011;51556;50.002;22.014;2023-11-19T10:30:29;12.50;;;6.20;;
65009;SDS011;51556;50.002;22.014;2023-11-19T10:33:11;11.10;;;6.70;;
65009;SDS011;51556;50.002;22.014;2023-11-19T10:38:21;8.70;;;5.70;;
65009;SDS011;51556;50.002;22.014;2023-11-19T10:40:48;10.10;;;6.10;;
65009;SDS011;51556;50.002;22.014;2023-11-19T10:43:16;11.80;;;6.60;;
65009;SDS011;51556;50.002;22.014;2023-11-19T10:45:42;13.70;;;7.80;;
65009;SDS011;51556;50.002;22.014;2023-11-19T10:48:08;13.40;;;7.10;;
65009;SDS011;51556;50.002;22.014;2023-11-19T10:50:34;11.30;;;6.40;;
65009;SDS011;51556;50.002;22.014;2023-11-19T10:53:01;13.90;;;7.40;;
65009;SDS011;51556;50.002;22.014;2023-11-19T10:55:28;12.70;;;7.40;;
65009;SDS011;51556;50.002;22.014;2023-11-19T10:58:01;17.10;;;9.90;;
65009;SDS011;51556;50.002;22.014;2023-11-19T11:00:51;12.90;;;7.50;;
65009;SDS011;51556;50.002;22.014;2023-11-19T11:03:20;12.00;;;7.40;;
65009;SDS011;51556;50.002;22.014;2023-11-19T11:05:48;13.30;;;7.60;;
65009;SDS011;51556;50.002;22.014;2023-11-19T11:08:15;16.70;;;9.20;;
65009;SDS011;51556;50.002;22.014;2023-11-19T11:10:45;19.40;;;10.10;;
65009;SDS011;51556;50.002;22.014;2023-11-19T11:13:18;14.50;;;7.20;;
65009;SDS011;51556;50.002;22.014;2023-11-19T11:15:44;13.90;;;7.30;;
65009;SDS011;51556;50.002;22.014;2023-11-19T11:18:12;13.30;;;7.60;;
65009;SDS011;51556;50.002;22.014;2023-11-19T11:20:38;12.00;;;7.60;;
65009;SDS011;51556;50.002;22.014;2023-11-19T11:23:23;10.50;;;6.40;;
65009;SDS011;51556;50.002;22.014;2023-11-19T11:31:31;10.30;;;6.20;;
65009;SDS011;51556;50.002;22.014;2023-11-19T11:39:34;14.90;;;7.40;;
65009;SDS011;51556;50.002;22.014;2023-11-19T11:45:15;12.40;;;6.30;;
65009;SDS011;51556;50.002;22.014;2023-11-19T11:50:13;9.50;;;5.70;;
65009;SDS011;51556;50.002;22.014;2023-11-19T11:58:13;9.10;;;5.70;;
65009;SDS011;51556;50.002;22.014;2023-11-19T12:00:40;10.00;;;5.50;;
65009;SDS011;51556;50.002;22.014;2023-11-19T12:03:07;10.10;;;5.70;;
65009;SDS011;51556;50.002;22.014;2023-11-19T12:05:43;8.30;;;5.20;;
65009;SDS011;51556;50.002;22.014;2023-11-19T12:08:10;9.60;;;5.00;;
65009;SDS011;51556;50.002;22.014;2023-11-19T12:10:58;9.70;;;5.40;;
65009;SDS011;51556;50.002;22.014;2023-11-19T12:13:23;10.10;;;5.90;;
65009;SDS011;51556;50.002;22.014;2023-11-19T12:18:24;12.80;;;7.50;;
65009;SDS011;51556;50.002;22.014;2023-11-19T12:20:52;13.40;;;7.60;;
65009;SDS011;51556;50.002;22.014;2023-11-19T12:23:17;13.10;;;7.00;;
65009;SDS011;51556;50.002;22.014;2023-11-19T12:25:43;14.00;;;8.50;;
65009;SDS011;51556;50.002;22.014;2023-11-19T12:28:13;12.60;;;7.20;;
65009;SDS011;51556;50.002;22.014;2023-11-19T12:30:41;12.40;;;7.40;;
65009;SDS011;51556;50.002;22.014;2023-11-19T12:33:10;13.60;;;7.90;;
65009;SDS011;51556;50.002;22.014;2023-11-19T12:35:40;13.90;;;7.90;;
65009;SDS011;51556;50.002;22.014;2023-11-19T12:38:05;13.20;;;6.60;;
65009;SDS011;51556;50.002;22.014;2023-11-19T12:40:31;12.30;;;8.00;;
65009;SDS011;51556;50.002;22.014;2023-11-19T12:42:57;12.60;;;7.20;;
65009;SDS011;51556;50.002;22.014;2023-11-19T12:45:22;14.30;;;7.20;;
65009;SDS011;51556;50.002;22.014;2023-11-19T12:48:04;12.30;;;6.40;;
65009;SDS011;51556;50.002;22.014;2023-11-19T12:53:47;8.60;;;5.20;;
65009;SDS011;51556;50.002;22.014;2023-11-19T12:56:23;12.40;;;6.00;;
65009;SDS011;51556;50.002;22.014;2023-11-19T12:58:49;9.10;;;5.50;;
65009;SDS011;51556;50.002;22.014;2023-11-19T13:01:18;9.90;;;5.60;;
65009;SDS011;51556;50.002;22.014;2023-11-19T13:03:45;11.30;;;6.00;;
65009;SDS011;51556;50.002;22.014;2023-11-19T13:06:12;9.70;;;5.60;;
65009;SDS011;51556;50.002;22.014;2023-11-19T13:08:44;10.80;;;6.10;;
65009;SDS011;51556;50.002;22.014;2023-11-19T13:11:33;12.20;;;7.10;;
65009;SDS011;51556;50.002;22.014;2023-11-19T13:14:03;10.80;;;5.90;;
65009;SDS011;51556;50.002;22.014;2023-11-19T13:16:33;11.50;;;7.40;;
65009;SDS011;51556;50.002;22.014;2023-11-19T13:22:18;12.60;;;6.60;;
65009;SDS011;51556;50.002;22.014;2023-11-19T13:24:49;12.60;;;5.70;;
65009;SDS011;51556;50.002;22.014;2023-11-19T13:27:38;11.60;;;5.80;;
65009;SDS011;51556;50.002;22.014;2023-11-19T13:30:15;10.30;;;6.10;;
65009;SDS011;51556;50.002;22.014;2023-11-19T13:33:45;7.50;;;4.90;;
65009;SDS011;51556;50.002;22.014;2023-11-19T13:36:14;9.10;;;5.10;;
65009;SDS011;51556;50.002;22.014;2023-11-19T13:38:51;9.70;;;5.20;;
65009;SDS011;51556;50.002;22.014;2023-11-19T13:41:31;10.20;;;5.20;;
65009;SDS011;51556;50.002;22.014;2023-11-19T13:44:08;8.30;;;5.10;;
65009;SDS011;51556;50.002;22.014;2023-11-19T13:46:39;11.30;;;6.40;;
65009;SDS011;51556;50.002;22.014;2023-11-19T13:49:10;11.30;;;7.50;;
65009;SDS011;51556;50.002;22.014;2023-11-19T13:51:40;14.80;;;7.60;;
65009;SDS011;51556;50.002;22.014;2023-11-19T13:54:06;10.60;;;6.30;;
65009;SDS011;51556;50.002;22.014;2023-11-19T13:56:34;14.30;;;6.50;;
65009;SDS011;51556;50.002;22.014;2023-11-19T13:59:02;11.80;;;6.70;;
65009;SDS011;51556;50.002;22.014;2023-11-19T14:01:39;8.80;;;5.30;;
65009;SDS011;51556;50.002;22.014;2023-11-19T14:04:10;10.70;;;6.70;;
65009;SDS011;51556;50.002;22.014;2023-11-19T14:06:40;13.20;;;6.90;;
65009;SDS011;51556;50.002;22.014;2023-11-19T14:09:12;10.70;;;6.50;;
65009;SDS011;51556;50.002;22.014;2023-11-19T14:11:37;9.90;;;6.30;;
65009;SDS011;51556;50.002;22.014;2023-11-19T14:14:03;12.80;;;7.40;;
65009;SDS011;51556;50.002;22.014;2023-11-19T14:16:29;13.70;;;7.30;;
65009;SDS011;51556;50.002;22.014;2023-11-19T14:18:54;16.00;;;8.20;;
65009;SDS011;51556;50.002;22.014;2023-11-19T14:21:22;13.20;;;6.80;;
65009;SDS011;51556;50.002;22.014;2023-11-19T14:23:47;13.10;;;7.30;;
65009;SDS011;51556;50.002;22.014;2023-11-19T14:26:18;14.10;;;9.50;;
65009;SDS011;51556;50.002;22.014;2023-11-19T14:28:43;10.50;;;6.60;;
65009;SDS011;51556;50.002;22.014;2023-11-19T14:31:09;9.90;;;6.30;;
65009;SDS011;51556;50.002;22.014;2023-11-19T14:33:34;13.10;;;7.20;;
65009;SDS011;51556;50.002;22.014;2023-11-19T14:36:01;12.00;;;6.40;;
65009;SDS011;51556;50.002;22.014;2023-11-19T14:38:27;12.10;;;7.10;;
65009;SDS011;51556;50.002;22.014;2023-11-19T14:40:52;10.40;;;6.00;;
65009;SDS011;51556;50.002;22.014;2023-11-19T14:43:17;11.90;;;7.40;;
65009;SDS011;51556;50.002;22.014;2023-11-19T14:45:43;11.20;;;6.50;;
65009;SDS011;51556;50.002;22.014;2023-11-19T14:48:08;14.40;;;6.10;;
65009;SDS011;51556;50.002;22.014;2023-11-19T14:50:35;13.80;;;7.80;;
65009;SDS011;51556;50.002;22.014;2023-11-19T14:53:00;12.60;;;7.40;;
65009;SDS011;51556;50.002;22.014;2023-11-19T14:55:27;14.30;;;7.90;;
65009;SDS011;51556;50.002;22.014;2023-11-19T14:57:52;12.00;;;7.40;;
65009;SDS011;51556;50.002;22.014;2023-11-19T15:00:18;15.70;;;9.10;;
65009;SDS011;51556;50.002;22.014;2023-11-19T15:02:44;15.90;;;8.90;;
65009;SDS011;51556;50.002;22.014;2023-11-19T15:05:09;14.70;;;8.50;;